createdAt,value
2022-09-10T00:00:26.608Z,74.90
2022-09-10T00:03:14.671Z,66.60
2022-09-10T00:05:45.804Z,91.80
2022-09-10T00:08:23.794Z,74.00
2022-09-10T00:10:54.012Z,75.50
2022-09-10T00:13:24.474Z,79.90
2022-09-10T00:15:57.394Z,83.50
2022-09-10T00:18:25.136Z,85.20
2022-09-10T00:20:59.775Z,91.30
2022-09-10T00:23:31.772Z,95.80
2022-09-10T00:25:59.843Z,91.60
2022-09-10T00:28:28.795Z,82.80
2022-09-10T00:30:56.410Z,91.90
2022-09-10T00:33:24.495Z,63.50
2022-09-10T00:35:54.771Z,62.00
2022-09-10T00:38:39.695Z,56.10
2022-09-10T00:41:08.149Z,75.80
2022-09-10T00:44:01.812Z,74.40
2022-09-10T00:46:43.741Z,62.80
2022-09-10T00:49:20.838Z,63.90
2022-09-10T00:51:53.383Z,65.90
2022-09-10T00:54:25.398Z,56.60
2022-09-10T00:56:55.364Z,48.60
2022-09-10T00:59:40.389Z,50.80
2022-09-10T01:02:13.537Z,58.70
2022-09-10T01:05:10.043Z,52.50
2022-09-10T01:07:40.018Z,66.40
2022-09-10T01:10:32.311Z,56.30
2022-09-10T01:13:24.964Z,56.60
2022-09-10T01:16:34.373Z,72.10
2022-09-10T01:19:08.184Z,60.10
2022-09-10T01:22:15.851Z,67.00
2022-09-10T01:24:55.504Z,60.40
2022-09-10T01:27:37.056Z,59.00
2022-09-10T01:30:19.911Z,55.70
2022-09-10T01:32:57.302Z,65.20
2022-09-10T01:35:52.963Z,66.30
2022-09-10T01:38:38.469Z,45.90
2022-09-10T01:41:14.824Z,54.70
2022-09-10T01:43:42.895Z,67.20
2022-09-10T01:49:44.202Z,59.30
2022-09-10T01:52:13.587Z,62.00
2022-09-10T01:55:09.941Z,74.90
2022-09-10T01:58:17.104Z,73.90
2022-09-10T02:01:26.045Z,74.30
2022-09-10T02:03:59.156Z,84.30
2022-09-10T02:06:33.676Z,75.30
2022-09-10T02:09:22.937Z,66.20
2022-09-10T02:11:57.526Z,86.50
2022-09-10T02:14:56.330Z,77.60
2022-09-10T02:17:38.105Z,69.00
2022-09-10T02:20:15.749Z,78.60
2022-09-10T02:22:54.527Z,74.20
2022-09-10T02:25:23.373Z,84.90
2022-09-10T02:27:55.599Z,73.90
2022-09-10T02:30:24.182Z,75.90
2022-09-10T02:32:55.144Z,87.50
2022-09-10T02:35:25.796Z,80.90
2022-09-10T02:37:58.443Z,81.90
2022-09-10T02:40:34.530Z,107.90
2022-09-10T02:43:04.964Z,86.60
2022-09-10T02:45:32.928Z,85.00
2022-09-10T02:48:08.467Z,110.50
2022-09-10T02:50:36.318Z,118.40
2022-09-10T02:53:06.588Z,118.70
2022-09-10T02:55:46.275Z,128.30
2022-09-10T02:58:17.372Z,110.50
2022-09-10T03:01:39.569Z,108.10
2022-09-10T03:05:10.402Z,128.90
2022-09-10T03:07:47.201Z,81.80
